createdAt,value
2018-04-23T00:02:15.930Z,6.45
2018-04-23T00:04:49.453Z,6.40
2018-04-23T00:07:22.990Z,7.03
2018-04-23T00:09:56.732Z,7.40
2018-04-23T00:12:30.296Z,6.75
2018-04-23T00:15:03.843Z,6.78
2018-04-23T00:17:37.434Z,6.72
2018-04-23T00:20:11.014Z,6.93
2018-04-23T00:22:44.616Z,6.97
2018-04-23T00:25:18.218Z,7.30
2018-04-23T00:27:51.780Z,8.32
2018-04-23T00:30:26.240Z,6.80
2018-04-23T00:32:59.961Z,7.03
2018-04-23T00:35:33.604Z,7.45
2018-04-23T00:38:07.165Z,7.15
2018-04-23T00:40:40.741Z,7.35
2018-04-23T00:43:14.279Z,7.12
2018-04-23T00:45:47.768Z,7.32
2018-04-23T00:48:21.318Z,7.80
2018-04-23T00:50:55.109Z,7.05
2018-04-23T00:53:38.346Z,7.43
2018-04-23T00:56:12.170Z,7.00
2018-04-23T00:58:45.677Z,6.70
2018-04-23T01:01:19.243Z,7.10
2018-04-23T01:03:52.812Z,6.50
2018-04-23T01:06:26.379Z,6.37
2018-04-23T01:09:00.097Z,6.53
2018-04-23T01:11:33.674Z,6.30
2018-04-23T01:14:07.998Z,6.30
2018-04-23T01:16:41.683Z,7.12
2018-04-23T01:19:15.315Z,6.60
2018-04-23T01:21:48.868Z,6.80
2018-04-23T01:24:22.502Z,7.78
2018-04-23T01:26:56.132Z,7.50
2018-04-23T01:29:29.683Z,7.15
2018-04-23T01:32:03.188Z,6.65
2018-04-23T01:34:36.791Z,6.40
2018-04-23T01:37:10.362Z,7.20
2018-04-23T01:39:43.937Z,6.93
2018-04-23T01:42:17.562Z,6.47
2018-04-23T01:44:51.295Z,6.75
2018-04-23T01:47:24.889Z,7.10
2018-04-23T01:49:58.541Z,7.05
2018-04-23T01:52:32.113Z,6.43
2018-04-23T01:55:05.709Z,6.93
2018-04-23T01:57:39.236Z,7.07
2018-04-23T02:00:12.801Z,6.85
2018-04-23T02:02:46.387Z,6.32
2018-04-23T02:05:20.020Z,6.40
2018-04-23T02:07:53.718Z,7.10
2018-04-23T02:10:27.325Z,7.65
2018-04-23T02:13:00.923Z,7.05
2018-04-23T02:15:34.502Z,7.32
2018-04-23T02:18:08.109Z,7.80
2018-04-23T02:20:41.668Z,7.70
2018-04-23T02:23:15.218Z,6.78
2018-04-23T02:25:48.792Z,7.15
2018-04-23T02:28:22.395Z,8.68
2018-04-23T02:30:55.923Z,7.20
2018-04-23T02:33:30.431Z,6.62
2018-04-23T02:36:04.027Z,7.05
2018-04-23T02:38:37.622Z,7.07
2018-04-23T02:41:11.967Z,5.95
2018-04-23T02:43:46.464Z,7.53
2018-04-23T02:46:20.804Z,6.78
2018-04-23T02:48:54.363Z,6.55
2018-04-23T02:51:27.952Z,7.22
2018-04-23T02:54:02.413Z,7.90
2018-04-23T02:56:36.148Z,7.65
2018-04-23T02:59:09.680Z,6.75
2018-04-23T03:01:43.201Z,6.62
2018-04-23T03:04:16.796Z,7.47
2018-04-23T03:06:50.366Z,7.20
2018-04-23T03:09:24.035Z,7.40
2018-04-23T03:11:57.592Z,7.32
2018-04-23T03:14:31.164Z,6.93
2018-04-23T03:17:04.738Z,6.80
2018-04-23T03:19:38.325Z,7.37
2018-04-23T03:22:11.893Z,7.50
2018-04-23T03:24:45.395Z,7.40
2018-04-23T03:27:19.844Z,7.32
2018-04-23T03:29:54.147Z,7.50
2018-04-23T03:32:27.670Z,7.18
2018-04-23T03:35:01.256Z,6.50
2018-04-23T03:37:35.570Z,6.70
2018-04-23T03:40:09.179Z,7.32
2018-04-23T03:42:42.695Z,7.70
2018-04-23T03:45:16.239Z,7.43
2018-04-23T03:47:49.883Z,6.80
2018-04-23T03:50:23.598Z,7.60
2018-04-23T03:52:57.178Z,8.18
2018-04-23T03:55:31.504Z,7.60
2018-04-23T03:58:05.116Z,7.22
2018-04-23T04:00:38.705Z,7.70
2018-04-23T04:03:12.251Z,7.55
2018-04-23T04:05:45.772Z,6.90
2018-04-23T04:08:19.387Z,6.72
2018-04-23T04:10:52.939Z,7.40
2018-04-23T04:13:38.430Z,7.05
2018-04-23T04:16:23.979Z,7.03
2018-04-23T04:18:57.541Z,7.28
2018-04-23T04:21:31.164Z,7.10
2018-04-23T04:24:04.820Z,7.18
2018-04-23T04:26:38.336Z,7.80
2018-04-23T04:29:11.949Z,7.53
2018-04-23T04:31:45.654Z,8.07
2018-04-23T04:34:19.264Z,7.90
2018-04-23T04:36:52.851Z,7.47
2018-04-23T04:39:27.162Z,7.90
2018-04-23T04:42:00.796Z,8.20
2018-04-23T04:44:34.380Z,8.07
2018-04-23T04:47:07.978Z,7.10
2018-04-23T04:49:41.508Z,8.35
2018-04-23T04:52:15.208Z,7.28
2018-04-23T04:54:48.717Z,8.50
2018-04-23T04:57:22.277Z,8.27
2018-04-23T04:59:56.589Z,7.50
2018-04-23T05:02:30.337Z,12.80
2018-04-23T05:05:03.896Z,8.23
2018-04-23T05:07:38.224Z,7.82
2018-04-23T05:10:11.915Z,6.62
2018-04-23T05:12:45.522Z,7.25
2018-04-23T05:15:19.103Z,8.00
2018-04-23T05:17:52.832Z,7.40
2018-04-23T05:20:26.414Z,7.43
2018-04-23T05:23:00.757Z,8.48
2018-04-23T05:25:34.425Z,8.57
2018-04-23T05:28:08.071Z,7.93
2018-04-23T05:30:41.639Z,8.80
2018-04-23T05:33:15.317Z,7.32
2018-04-23T05:35:48.950Z,7.32
2018-04-23T05:38:22.570Z,8.27
2018-04-23T05:40:56.128Z,7.75
2018-04-23T05:43:29.727Z,7.62
2018-04-23T05:46:04.093Z,7.75
2018-04-23T05:48:37.692Z,9.02
2018-04-23T05:51:11.273Z,9.05
2018-04-23T05:53:44.846Z,9.23
2018-04-23T05:56:18.472Z,7.30
2018-04-23T05:58:52.096Z,6.97
2018-04-23T06:01:25.677Z,7.47
2018-04-23T06:03:59.179Z,6.65
2018-04-23T06:06:32.772Z,7.97
2018-04-23T06:09:06.321Z,7.47
2018-04-23T06:11:39.873Z,6.78
2018-04-23T06:14:14.187Z,6.10
2018-04-23T06:16:47.904Z,6.70
2018-04-23T06:19:21.483Z,6.20
2018-04-23T06:21:55.778Z,6.80
2018-04-23T06:24:29.323Z,7.45
2018-04-23T06:27:02.895Z,6.70
2018-04-23T06:29:36.512Z,7.53
2018-04-23T06:32:10.190Z,6.35
2018-04-23T06:34:43.837Z,6.50
2018-04-23T06:37:17.396Z,5.90
2018-04-23T06:39:51.025Z,6.53
2018-04-23T06:42:25.320Z,5.80
2018-04-23T06:44:58.956Z,6.90
2018-04-23T06:47:32.532Z,6.07
2018-04-23T06:50:06.849Z,5.90
2018-04-23T06:52:40.378Z,6.20
2018-04-23T06:55:14.028Z,6.43
2018-04-23T06:57:47.564Z,6.43
2018-04-23T07:00:21.163Z,6.37
2018-04-23T07:02:54.755Z,6.62
2018-04-23T07:05:28.365Z,7.12
2018-04-23T07:08:01.948Z,5.68
2018-04-23T07:10:36.268Z,6.10
2018-04-23T07:13:09.862Z,6.60
2018-04-23T07:15:43.446Z,5.90
2018-04-23T07:18:17.001Z,5.18
2018-04-23T07:20:51.388Z,4.85
2018-04-23T07:23:25.066Z,6.03
2018-04-23T07:25:58.715Z,4.68
2018-04-23T07:28:32.291Z,5.35
2018-04-23T07:31:05.816Z,4.37
2018-04-23T07:33:39.390Z,5.15
2018-04-23T07:36:13.710Z,5.03
2018-04-23T07:38:47.282Z,4.35
2018-04-23T07:41:20.895Z,5.18
2018-04-23T07:43:54.440Z,4.90
2018-04-23T07:46:28.017Z,4.95
2018-04-23T07:49:01.604Z,4.80
2018-04-23T07:51:35.930Z,5.53
2018-04-23T07:54:09.575Z,4.68
2018-04-23T07:56:43.132Z,5.25
2018-04-23T07:59:16.663Z,4.50
2018-04-23T08:01:50.228Z,5.45
2018-04-23T08:04:23.832Z,4.20
2018-04-23T08:06:58.139Z,4.80
2018-04-23T08:09:31.865Z,4.70
2018-04-23T08:12:05.351Z,4.45
2018-04-23T08:14:39.666Z,4.12
2018-04-23T08:17:13.363Z,4.35
2018-04-23T08:19:47.001Z,3.85
2018-04-23T08:22:20.505Z,3.65
2018-04-23T08:24:54.065Z,3.75
2018-04-23T08:27:28.085Z,3.67
2018-04-23T08:30:02.596Z,3.83
2018-04-23T08:32:36.213Z,4.03
2018-04-23T08:35:09.779Z,3.33
2018-04-23T08:37:43.299Z,3.70
2018-04-23T08:40:16.937Z,3.53
2018-04-23T08:42:50.491Z,3.80
2018-04-23T08:45:24.076Z,3.40
2018-04-23T08:47:57.704Z,3.50
2018-04-23T08:50:31.401Z,3.25
2018-04-23T08:53:05.013Z,4.12
2018-04-23T08:55:38.530Z,4.20
2018-04-23T08:58:12.244Z,3.30
2018-04-23T09:00:45.824Z,3.37
2018-04-23T09:03:19.403Z,3.67
2018-04-23T09:05:52.952Z,4.00
2018-04-23T09:08:26.516Z,3.62
2018-04-23T09:11:00.090Z,3.80
2018-04-23T09:13:33.639Z,3.50
2018-04-23T09:16:07.181Z,3.92
2018-04-23T09:18:40.733Z,3.12
2018-04-23T09:21:14.444Z,3.22
2018-04-23T09:23:47.994Z,4.00
2018-04-23T09:26:21.504Z,3.92
2018-04-23T09:28:55.181Z,4.25
2018-04-23T09:31:28.742Z,3.42
2018-04-23T09:34:02.243Z,2.83
2018-04-23T09:36:35.804Z,3.67
2018-04-23T09:39:09.434Z,3.92
2018-04-23T09:41:43.098Z,3.42
2018-04-23T09:44:16.793Z,3.72
2018-04-23T09:46:50.348Z,3.20
2018-04-23T09:49:23.941Z,3.33
2018-04-23T09:51:57.474Z,3.35
2018-04-23T09:54:31.126Z,3.40
2018-04-23T09:57:05.528Z,3.22
2018-04-23T09:59:39.872Z,3.80
2018-04-23T10:02:13.449Z,3.35
2018-04-23T10:04:47.055Z,4.03
2018-04-23T10:07:20.779Z,3.37
2018-04-23T10:09:54.492Z,3.10
2018-04-23T10:12:28.040Z,3.45
2018-04-23T10:15:02.577Z,3.97
2018-04-23T10:17:36.154Z,2.90
2018-04-23T10:20:09.813Z,3.20
2018-04-23T10:22:43.379Z,3.40
2018-04-23T10:25:17.697Z,2.78
2018-04-23T10:27:51.341Z,3.08
2018-04-23T10:30:24.837Z,3.08
2018-04-23T10:32:58.526Z,3.20
2018-04-23T10:35:32.815Z,2.87
2018-04-23T10:38:06.377Z,3.42
2018-04-23T10:40:40.739Z,3.17
2018-04-23T10:43:14.423Z,3.80
2018-04-23T10:45:48.193Z,3.20
2018-04-23T10:48:21.731Z,3.25
2018-04-23T10:50:55.452Z,3.35
2018-04-23T10:53:29.218Z,2.90
2018-04-23T10:56:02.870Z,3.60
2018-04-23T10:58:36.571Z,3.30
2018-04-23T11:01:10.093Z,3.28
2018-04-23T11:03:43.666Z,3.10
2018-04-23T11:06:17.263Z,3.30
2018-04-23T11:08:50.840Z,3.87
2018-04-23T11:11:25.190Z,3.75
2018-04-23T11:13:58.840Z,3.28
2018-04-23T11:16:32.385Z,3.50
2018-04-23T11:19:05.947Z,3.72
2018-04-23T11:21:40.304Z,3.28
2018-04-23T11:24:14.003Z,3.55
2018-04-23T11:26:47.736Z,2.95
2018-04-23T11:29:21.341Z,3.80
2018-04-23T11:31:54.923Z,3.97
2018-04-23T11:34:28.503Z,3.08
2018-04-23T11:37:02.209Z,2.80
2018-04-23T11:39:35.809Z,3.55
2018-04-23T11:42:09.463Z,3.75
2018-04-23T11:44:44.031Z,3.37
2018-04-23T11:47:17.762Z,3.85
2018-04-23T11:49:51.277Z,3.20
2018-04-23T11:52:24.939Z,2.65
2018-04-23T11:54:58.644Z,3.00
2018-04-23T11:57:32.158Z,3.00
2018-04-23T12:00:05.744Z,3.30
2018-04-23T12:02:39.410Z,3.33
2018-04-23T12:05:12.989Z,3.22
2018-04-23T12:07:46.667Z,3.20
2018-04-23T12:10:20.338Z,3.70
2018-04-23T12:12:53.947Z,3.10
2018-04-23T12:15:27.519Z,3.12
2018-04-23T12:18:01.163Z,3.30
2018-04-23T12:20:35.680Z,2.78
2018-04-23T12:23:09.273Z,3.28
2018-04-23T12:25:42.764Z,2.95
2018-04-23T12:28:16.314Z,3.40
2018-04-23T12:30:49.864Z,3.20
2018-04-23T12:33:23.583Z,3.08
2018-04-23T12:35:57.270Z,3.00
2018-04-23T12:38:31.797Z,3.90
2018-04-23T12:41:06.099Z,3.03
2018-04-23T12:43:39.829Z,3.22
2018-04-23T12:46:13.416Z,2.85
2018-04-23T12:48:47.018Z,3.10
2018-04-23T12:51:20.609Z,3.45
2018-04-23T12:53:54.190Z,3.60
2018-04-23T12:56:27.816Z,3.10
2018-04-23T12:59:01.536Z,3.65
2018-04-23T13:01:35.251Z,2.90
2018-04-23T13:04:08.966Z,2.87
2018-04-23T13:06:42.534Z,2.70
2018-04-23T13:09:16.227Z,3.42
2018-04-23T13:11:49.869Z,3.60
2018-04-23T13:14:23.369Z,3.33
2018-04-23T13:16:57.844Z,3.62
2018-04-23T13:19:31.533Z,3.15
2018-04-23T13:22:05.249Z,3.40
2018-04-23T13:24:38.871Z,3.45
2018-04-23T13:27:12.456Z,3.55
2018-04-23T13:29:46.196Z,3.15
2018-04-23T13:32:19.885Z,3.40
2018-04-23T13:34:53.556Z,4.18
2018-04-23T13:37:27.167Z,3.72
2018-04-23T13:40:00.776Z,2.92
2018-04-23T13:42:34.492Z,2.97
2018-04-23T13:45:08.078Z,3.95
2018-04-23T13:47:41.820Z,3.97
2018-04-23T13:50:15.631Z,3.90
2018-04-23T13:52:49.173Z,3.67
2018-04-23T13:55:22.737Z,3.47
2018-04-23T13:57:57.200Z,3.58
2018-04-23T14:00:30.779Z,3.50
2018-04-23T14:03:04.419Z,3.35
2018-04-23T14:05:38.933Z,3.28
2018-04-23T14:08:12.601Z,3.15
2018-04-23T14:10:46.243Z,3.62
2018-04-23T14:13:19.815Z,3.67
2018-04-23T14:15:53.597Z,3.50
2018-04-23T14:18:27.236Z,3.92
2018-04-23T14:21:00.862Z,2.70
2018-04-23T14:23:34.371Z,3.15
2018-04-23T14:26:07.928Z,3.80
2018-04-23T14:28:41.544Z,3.10
2018-04-23T14:31:15.231Z,4.10
2018-04-23T14:33:48.762Z,3.42
2018-04-23T14:36:22.335Z,3.33
2018-04-23T14:38:56.083Z,4.50
2018-04-23T14:41:29.729Z,5.97
2018-04-23T14:44:03.498Z,7.62
2018-04-23T14:46:37.054Z,6.68
2018-04-23T14:49:10.662Z,7.12
2018-04-23T14:51:44.340Z,6.55
2018-04-23T14:54:18.733Z,8.40
2018-04-23T14:56:52.283Z,5.50
2018-04-23T14:59:25.957Z,6.37
2018-04-23T15:01:59.464Z,6.43
2018-04-23T15:04:33.008Z,6.22
2018-04-23T15:07:06.681Z,5.93
2018-04-23T15:09:40.277Z,5.30
2018-04-23T15:12:13.801Z,5.05
2018-04-23T15:14:47.396Z,5.40
2018-04-23T15:17:20.967Z,4.78
2018-04-23T15:19:54.500Z,5.57
2018-04-23T15:22:28.901Z,4.90
2018-04-23T15:25:02.401Z,5.43
2018-04-23T15:27:35.976Z,4.40
2018-04-23T15:30:09.520Z,3.70
2018-04-23T15:32:43.212Z,13.43
2018-04-23T15:35:16.838Z,16.85
2018-04-23T15:37:50.400Z,7.50
2018-04-23T15:40:24.820Z,3.55
2018-04-23T15:42:58.684Z,4.15
2018-04-23T15:45:32.436Z,3.60
2018-04-23T15:48:06.024Z,3.53
2018-04-23T15:50:39.613Z,3.80
2018-04-23T15:53:13.128Z,4.00
2018-04-23T15:55:46.650Z,5.18
2018-04-23T15:58:20.258Z,5.07
2018-04-23T16:00:53.816Z,3.80
2018-04-23T16:03:27.414Z,4.12
2018-04-23T16:06:01.024Z,3.90
2018-04-23T16:08:34.611Z,3.78
2018-04-23T16:11:08.235Z,3.75
2018-04-23T16:13:41.807Z,3.67
2018-04-23T16:16:15.411Z,3.95
2018-04-23T16:18:49.026Z,3.50
2018-04-23T16:21:22.545Z,3.28
2018-04-23T16:23:56.060Z,4.22
2018-04-23T16:26:29.624Z,4.07
2018-04-23T16:29:03.139Z,2.97
2018-04-23T16:31:36.830Z,2.80
2018-04-23T16:34:10.414Z,3.53
2018-04-23T16:36:43.984Z,4.15
2018-04-23T16:39:17.537Z,4.30
2018-04-23T16:41:51.127Z,4.10
2018-04-23T16:44:27.169Z,3.08
2018-04-23T16:46:58.328Z,3.60
2018-04-23T16:49:31.919Z,3.22
2018-04-23T16:52:06.242Z,3.67
2018-04-23T16:54:40.209Z,3.40
2018-04-23T16:57:13.740Z,3.17
2018-04-23T16:59:47.335Z,3.50
2018-04-23T17:02:21.071Z,3.80
2018-04-23T17:04:55.373Z,3.97
2018-04-23T17:07:29.277Z,3.10
2018-04-23T17:10:03.061Z,4.20
2018-04-23T17:12:36.623Z,8.63
2018-04-23T17:15:10.179Z,4.07
2018-04-23T17:17:43.714Z,5.12
2018-04-23T17:20:17.294Z,4.95
2018-04-23T17:22:50.872Z,3.28
2018-04-23T17:25:24.404Z,4.25
2018-04-23T17:27:57.902Z,3.95
2018-04-23T17:30:31.475Z,3.30
2018-04-23T17:33:05.141Z,3.15
2018-04-23T17:35:38.724Z,3.60
2018-04-23T17:38:12.288Z,4.03
2018-04-23T17:40:45.933Z,3.35
2018-04-23T17:43:19.692Z,4.22
2018-04-23T17:45:53.287Z,3.30
2018-04-23T17:48:26.808Z,3.85
2018-04-23T17:51:00.445Z,4.50
2018-04-23T17:53:34.175Z,3.85
2018-04-23T17:56:08.617Z,4.43
2018-04-23T17:58:42.402Z,3.28
2018-04-23T18:01:15.963Z,3.20
2018-04-23T18:03:49.611Z,4.00
2018-04-23T18:06:23.218Z,3.67
2018-04-23T18:08:56.773Z,5.47
2018-04-23T18:11:30.359Z,4.97
2018-04-23T18:14:03.940Z,3.28
2018-04-23T18:16:37.489Z,4.45
2018-04-23T18:19:11.012Z,3.58
2018-04-23T18:21:44.545Z,3.60
2018-04-23T18:24:18.117Z,3.45
2018-04-23T18:26:51.703Z,3.35
2018-04-23T18:29:26.055Z,4.50
2018-04-23T18:31:59.683Z,4.30
2018-04-23T18:34:33.338Z,6.07
2018-04-23T18:37:06.868Z,5.28
2018-04-23T18:39:40.421Z,4.30
2018-04-23T18:42:14.158Z,4.45
2018-04-23T18:44:47.783Z,4.15
2018-04-23T18:47:22.051Z,4.43
2018-04-23T18:49:56.593Z,4.28
2018-04-23T18:52:30.106Z,4.12
2018-04-23T18:55:04.399Z,4.72
2018-04-23T18:57:39.028Z,4.03
2018-04-23T19:00:12.563Z,5.30
2018-04-23T19:02:46.151Z,5.32
2018-04-23T19:05:19.715Z,5.60
2018-04-23T19:07:53.259Z,5.57
2018-04-23T19:10:27.222Z,5.35
2018-04-23T19:13:01.668Z,5.50
2018-04-23T19:15:35.247Z,4.47
2018-04-23T19:18:08.826Z,4.90
2018-04-23T19:20:42.392Z,5.53
2018-04-23T19:23:15.932Z,5.97
2018-04-23T19:25:50.264Z,6.80
2018-04-23T19:28:23.994Z,5.20
2018-04-23T19:30:57.597Z,5.93
2018-04-23T19:33:31.179Z,6.25
2018-04-23T19:36:04.768Z,5.80
2018-04-23T19:38:38.380Z,6.07
2018-04-23T19:41:12.788Z,6.05
2018-04-23T19:43:46.495Z,5.75
2018-04-23T19:46:20.075Z,4.70
2018-04-23T19:48:53.711Z,5.00
2018-04-23T19:51:28.167Z,4.82
2018-04-23T19:54:02.528Z,4.53
2018-04-23T19:56:36.402Z,4.35
2018-04-23T19:59:10.075Z,6.10
2018-04-23T20:01:43.684Z,6.00
2018-04-23T20:04:18.080Z,5.22
2018-04-23T20:06:51.831Z,5.07
2018-04-23T20:09:25.375Z,6.20
2018-04-23T20:11:58.956Z,4.80
2018-04-23T20:14:32.612Z,4.87
2018-04-23T20:17:06.074Z,5.03
2018-04-23T20:19:39.594Z,4.97
2018-04-23T20:22:13.222Z,5.28
2018-04-23T20:24:47.783Z,5.50
2018-04-23T20:27:21.408Z,8.40
2018-04-23T20:29:54.986Z,6.22
2018-04-23T20:32:28.588Z,6.60
2018-04-23T20:35:02.187Z,6.82
2018-04-23T20:37:35.671Z,9.23
2018-04-23T20:40:09.283Z,7.75
2018-04-23T20:42:43.615Z,7.37
2018-04-23T20:45:17.178Z,7.37
2018-04-23T20:47:50.927Z,7.40
2018-04-23T20:50:24.536Z,6.68
2018-04-23T20:52:58.104Z,6.90
2018-04-23T20:55:31.707Z,6.62
2018-04-23T20:58:05.292Z,7.12
2018-04-23T21:00:38.920Z,7.53
2018-04-23T21:03:12.560Z,6.65
2018-04-23T21:05:46.241Z,7.72
2018-04-23T21:08:20.056Z,6.80
2018-04-23T21:10:53.732Z,7.05
2018-04-23T21:13:27.388Z,6.62
2018-04-23T21:16:00.950Z,6.93
2018-04-23T21:18:34.501Z,7.85
2018-04-23T21:21:08.105Z,7.97
2018-04-23T21:23:41.645Z,6.95
2018-04-23T21:26:15.237Z,7.47
2018-04-23T21:28:48.820Z,6.93
2018-04-23T21:31:22.372Z,8.02
2018-04-23T21:33:56.210Z,7.85
2018-04-23T21:36:29.801Z,6.85
2018-04-23T21:39:03.372Z,7.50
2018-04-23T21:41:37.016Z,8.23
2018-04-23T21:44:11.311Z,7.00
2018-04-23T21:46:44.995Z,6.70
2018-04-23T21:49:18.551Z,7.30
2018-04-23T21:51:52.144Z,7.03
2018-04-23T21:54:25.712Z,7.10
2018-04-23T21:57:00.075Z,7.40
2018-04-23T21:59:33.876Z,7.00
2018-04-23T22:02:07.582Z,7.85
2018-04-23T22:04:42.113Z,6.12
2018-04-23T22:07:15.800Z,6.28
2018-04-23T22:09:49.411Z,7.25
2018-04-23T22:12:23.734Z,10.02
2018-04-23T22:14:57.888Z,9.10
2018-04-23T22:17:31.472Z,6.80
2018-04-23T22:20:05.032Z,7.65
2018-04-23T22:22:38.763Z,8.10
2018-04-23T22:25:13.371Z,6.78
2018-04-23T22:27:46.968Z,6.55
2018-04-23T22:30:20.562Z,7.57
2018-04-23T22:32:54.171Z,6.50
2018-04-23T22:35:28.021Z,6.82
2018-04-23T22:38:01.512Z,6.53
2018-04-23T22:40:35.101Z,6.60
2018-04-23T22:43:08.761Z,7.12
2018-04-23T22:45:42.399Z,6.75
2018-04-23T22:48:16.095Z,6.68
2018-04-23T22:50:49.776Z,7.18
2018-04-23T22:53:24.204Z,6.25
2018-04-23T22:55:57.835Z,5.37
2018-04-23T22:58:31.547Z,6.10
2018-04-23T23:01:05.101Z,6.55
2018-04-23T23:03:38.709Z,7.10
2018-04-23T23:06:12.280Z,6.55
2018-04-23T23:08:45.840Z,5.75
2018-04-23T23:11:20.332Z,6.30
2018-04-23T23:13:54.068Z,6.60
2018-04-23T23:16:28.355Z,6.30
2018-04-23T23:19:02.662Z,6.30
2018-04-23T23:21:36.355Z,6.62
2018-04-23T23:24:09.879Z,6.20
2018-04-23T23:26:43.460Z,7.20
2018-04-23T23:29:17.792Z,6.18
2018-04-23T23:31:51.464Z,6.47
2018-04-23T23:34:25.020Z,7.35
2018-04-23T23:36:58.596Z,5.95
2018-04-23T23:39:32.327Z,7.10
2018-04-23T23:42:06.029Z,7.80
2018-04-23T23:44:40.542Z,7.07
2018-04-23T23:47:15.128Z,7.45
2018-04-23T23:49:48.727Z,5.78
2018-04-23T23:52:22.328Z,7.07
2018-04-23T23:54:55.951Z,6.78
2018-04-23T23:57:29.537Z,6.20
